sensor_id;sensor_type;location;lat;lon;timestamp;temperature;humidity
71436;SHT31;59251;51.326;12.370;2023-09-12T00:01:34;18.29;91.93
71436;SHT31;59251;51.326;12.370;2023-09-12T00:04:01;18.27;91.96
71436;SHT31;59251;51.326;12.370;2023-09-12T00:06:28;18.30;91.58
71436;SHT31;59251;51.326;12.370;2023-09-12T00:08:54;18.36;91.48
71436;SHT31;59251;51.326;12.370;2023-09-12T00:11:21;18.25;91.87
71436;SHT31;59251;51.326;12.370;2023-09-12T00:13:51;18.27;91.83
71436;SHT31;59251;51.326;12.370;2023-09-12T00:16:18;18.16;92.10
71436;SHT31;59251;51.326;12.370;2023-09-12T00:18:46;18.12;92.31
71436;SHT31;59251;51.326;12.370;2023-09-12T00:21:12;18.09;92.31
71436;SHT31;59251;51.326;12.370;2023-09-12T00:23:39;18.13;92.26
71436;SHT31;59251;51.326;12.370;2023-09-12T00:26:06;18.10;92.05
71436;SHT31;59251;51.326;12.370;2023-09-12T00:28:32;18.13;91.97
71436;SHT31;59251;51.326;12.370;2023-09-12T00:31:00;18.03;92.12
71436;SHT31;59251;51.326;12.370;2023-09-12T00:33:26;18.03;91.96
71436;SHT31;59251;51.326;12.370;2023-09-12T00:35:54;18.00;92.08
71436;SHT31;59251;51.326;12.370;2023-09-12T00:38:21;18.00;92.30
71436;SHT31;59251;51.326;12.370;2023-09-12T00:40:48;17.96;92.21
71436;SHT31;59251;51.326;12.370;2023-09-12T00:43:15;17.88;92.64
71436;SHT31;59251;51.326;12.370;2023-09-12T00:45:42;17.88;92.49
71436;SHT31;59251;51.326;12.370;2023-09-12T00:48:09;17.79;92.85
71436;SHT31;59251;51.326;12.370;2023-09-12T00:50:36;17.75;93.11
71436;SHT31;59251;51.326;12.370;2023-09-12T00:53:05;17.71;93.23
71436;SHT31;59251;51.326;12.370;2023-09-12T00:55:33;17.65;93.22
71436;SHT31;59251;51.326;12.370;2023-09-12T00:58:01;17.68;93.18
71436;SHT31;59251;51.326;12.370;2023-09-12T01:00:28;17.64;93.36
71436;SHT31;59251;51.326;12.370;2023-09-12T01:02:56;17.62;93.43
71436;SHT31;59251;51.326;12.370;2023-09-12T01:05:24;17.72;90.95
71436;SHT31;59251;51.326;12.370;2023-09-12T01:07:51;18.05;89.13
71436;SHT31;59251;51.326;12.370;2023-09-12T01:10:19;18.13;90.25
71436;SHT31;59251;51.326;12.370;2023-09-12T01:12:46;18.02;90.60
71436;SHT31;59251;51.326;12.370;2023-09-12T01:15:13;17.99;90.71
71436;SHT31;59251;51.326;12.370;2023-09-12T01:17:41;17.99;90.17
71436;SHT31;59251;51.326;12.370;2023-09-12T01:20:12;17.98;90.24
71436;SHT31;59251;51.326;12.370;2023-09-12T01:22:55;18.00;89.55
71436;SHT31;59251;51.326;12.370;2023-09-12T01:25:38;18.10;89.07
71436;SHT31;59251;51.326;12.370;2023-09-12T01:28:09;17.98;89.97
71436;SHT31;59251;51.326;12.370;2023-09-12T01:30:38;17.96;90.63
71436;SHT31;59251;51.326;12.370;2023-09-12T01:33:05;17.88;90.87
71436;SHT31;59251;51.326;12.370;2023-09-12T01:35:32;17.81;90.92
71436;SHT31;59251;51.326;12.370;2023-09-12T01:37:59;17.83;91.22
71436;SHT31;59251;51.326;12.370;2023-09-12T01:40:31;17.82;90.38
71436;SHT31;59251;51.326;12.370;2023-09-12T01:43:00;17.78;90.54
71436;SHT31;59251;51.326;12.370;2023-09-12T01:45:29;17.72;90.54
71436;SHT31;59251;51.326;12.370;2023-09-12T01:47:56;17.77;90.60
71436;SHT31;59251;51.326;12.370;2023-09-12T01:50:25;17.85;90.56
71436;SHT31;59251;51.326;12.370;2023-09-12T01:52:53;17.83;90.03
71436;SHT31;59251;51.326;12.370;2023-09-12T01:55:20;17.75;90.39
71436;SHT31;59251;51.326;12.370;2023-09-12T01:57:47;17.79;89.95
71436;SHT31;59251;51.326;12.370;2023-09-12T02:00:14;17.69;90.21
71436;SHT31;59251;51.326;12.370;2023-09-12T02:02:42;17.68;89.45
71436;SHT31;59251;51.326;12.370;2023-09-12T02:05:11;17.68;89.25
71436;SHT31;59251;51.326;12.370;2023-09-12T02:07:41;17.79;89.08
71436;SHT31;59251;51.326;12.370;2023-09-12T02:10:08;17.78;89.94
71436;SHT31;59251;51.326;12.370;2023-09-12T02:12:36;17.69;90.37
71436;SHT31;59251;51.326;12.370;2023-09-12T02:15:04;17.67;90.56
71436;SHT31;59251;51.326;12.370;2023-09-12T02:17:31;17.62;90.51
71436;SHT31;59251;51.326;12.370;2023-09-12T02:19:59;17.65;90.71
71436;SHT31;59251;51.326;12.370;2023-09-12T02:22:25;17.47;90.80
71436;SHT31;59251;51.326;12.370;2023-09-12T02:24:52;17.57;90.60
71436;SHT31;59251;51.326;12.370;2023-09-12T02:27:19;17.50;90.85
71436;SHT31;59251;51.326;12.370;2023-09-12T02:29:45;17.42;91.27
71436;SHT31;59251;51.326;12.370;2023-09-12T02:32:12;17.57;90.97
71436;SHT31;59251;51.326;12.370;2023-09-12T02:34:39;17.61;90.76
71436;SHT31;59251;51.326;12.370;2023-09-12T02:37:07;17.62;90.34
71436;SHT31;59251;51.326;12.370;2023-09-12T02:39:34;17.42;90.70
71436;SHT31;59251;51.326;12.370;2023-09-12T02:42:00;17.42;91.07
71436;SHT31;59251;51.326;12.370;2023-09-12T02:44:28;17.38;90.73
71436;SHT31;59251;51.326;12.370;2023-09-12T02:46:54;17.34;91.00
71436;SHT31;59251;51.326;12.370;2023-09-12T02:49:21;17.19;91.46
71436;SHT31;59251;51.326;12.370;2023-09-12T02:51:48;17.17;91.66
71436;SHT31;59251;51.326;12.370;2023-09-12T02:54:16;17.07;91.85
71436;SHT31;59251;51.326;12.370;2023-09-12T02:56:43;17.07;91.74
71436;SHT31;59251;51.326;12.370;2023-09-12T02:59:09;17.06;91.83
71436;SHT31;59251;51.326;12.370;2023-09-12T03:01:36;17.02;91.94
71436;SHT31;59251;51.326;12.370;2023-09-12T03:04:03;16.93;92.10
71436;SHT31;59251;51.326;12.370;2023-09-12T03:06:30;16.94;92.02
71436;SHT31;59251;51.326;12.370;2023-09-12T03:08:57;16.99;92.01
71436;SHT31;59251;51.326;12.370;2023-09-12T03:11:26;16.94;92.34
71436;SHT31;59251;51.326;12.370;2023-09-12T03:13:54;17.04;92.17
71436;SHT31;59251;51.326;12.370;2023-09-12T03:16:20;17.02;92.13
71436;SHT31;59251;51.326;12.370;2023-09-12T03:18:49;16.94;92.24
71436;SHT31;59251;51.326;12.370;2023-09-12T03:21:16;16.87;92.51
71436;SHT31;59251;51.326;12.370;2023-09-12T03:23:43;16.82;92.83
71436;SHT31;59251;51.326;12.370;2023-09-12T03:26:10;16.90;92.57
71436;SHT31;59251;51.326;12.370;2023-09-12T03:28:39;16.80;92.98
71436;SHT31;59251;51.326;12.370;2023-09-12T03:31:08;16.75;92.97
71436;SHT31;59251;51.326;12.370;2023-09-12T03:33:37;16.84;92.52
71436;SHT31;59251;51.326;12.370;2023-09-12T03:36:05;16.87;92.70
71436;SHT31;59251;51.326;12.370;2023-09-12T03:38:32;16.75;92.90
71436;SHT31;59251;51.326;12.370;2023-09-12T03:40:59;16.79;92.91
71436;SHT31;59251;51.326;12.370;2023-09-12T03:43:25;16.79;92.73
71436;SHT31;59251;51.326;12.370;2023-09-12T03:45:54;17.03;92.24
71436;SHT31;59251;51.326;12.370;2023-09-12T03:48:21;17.00;92.16
71436;SHT31;59251;51.326;12.370;2023-09-12T03:50:47;16.92;92.52
71436;SHT31;59251;51.326;12.370;2023-09-12T03:53:14;16.94;92.23
71436;SHT31;59251;51.326;12.370;2023-09-12T03:55:41;16.97;91.71
71436;SHT31;59251;51.326;12.370;2023-09-12T03:58:08;17.03;91.11
71436;SHT31;59251;51.326;12.370;2023-09-12T04:00:35;17.12;90.44
71436;SHT31;59251;51.326;12.370;2023-09-12T04:03:03;17.24;89.88
71436;SHT31;59251;51.326;12.370;2023-09-12T04:05:30;17.37;89.24
71436;SHT31;59251;51.326;12.370;2023-09-12T04:07:57;17.47;89.06
71436;SHT31;59251;51.326;12.370;2023-09-12T04:10:24;17.47;88.80
71436;SHT31;59251;51.326;12.370;2023-09-12T04:12:50;17.48;88.68
71436;SHT31;59251;51.326;12.370;2023-09-12T04:15:17;17.50;88.82
71436;SHT31;59251;51.326;12.370;2023-09-12T04:17:44;17.41;89.07
71436;SHT31;59251;51.326;12.370;2023-09-12T04:20:12;17.44;88.83
71436;SHT31;59251;51.326;12.370;2023-09-12T04:22:39;17.55;88.34
71436;SHT31;59251;51.326;12.370;2023-09-12T04:25:07;17.51;88.53
71436;SHT31;59251;51.326;12.370;2023-09-12T04:27:34;17.45;89.49
71436;SHT31;59251;51.326;12.370;2023-09-12T04:30:01;17.37;89.99
71436;SHT31;59251;51.326;12.370;2023-09-12T04:32:28;17.35;89.57
71436;SHT31;59251;51.326;12.370;2023-09-12T04:34:55;17.19;90.61
71436;SHT31;59251;51.326;12.370;2023-09-12T04:37:23;17.04;90.72
71436;SHT31;59251;51.326;12.370;2023-09-12T04:39:50;17.14;90.69
71436;SHT31;59251;51.326;12.370;2023-09-12T04:42:17;17.03;90.75
71436;SHT31;59251;51.326;12.370;2023-09-12T04:44:44;17.04;90.83
71436;SHT31;59251;51.326;12.370;2023-09-12T04:47:10;16.97;90.61
71436;SHT31;59251;51.326;12.370;2023-09-12T04:49:39;16.94;91.28
71436;SHT31;59251;51.326;12.370;2023-09-12T04:52:06;16.96;91.19
71436;SHT31;59251;51.326;12.370;2023-09-12T04:54:34;16.96;91.29
71436;SHT31;59251;51.326;12.370;2023-09-12T04:57:02;16.96;91.37
71436;SHT31;59251;51.326;12.370;2023-09-12T04:59:28;16.93;91.58
71436;SHT31;59251;51.326;12.370;2023-09-12T05:01:55;16.83;91.94
71436;SHT31;59251;51.326;12.370;2023-09-12T05:04:22;16.82;91.94
71436;SHT31;59251;51.326;12.370;2023-09-12T05:06:48;16.97;91.34
71436;SHT31;59251;51.326;12.370;2023-09-12T05:09:15;17.04;91.06
71436;SHT31;59251;51.326;12.370;2023-09-12T05:11:44;17.09;90.87
71436;SHT31;59251;51.326;12.370;2023-09-12T05:14:10;17.10;90.84
71436;SHT31;59251;51.326;12.370;2023-09-12T05:16:37;17.19;90.63
71436;SHT31;59251;51.326;12.370;2023-09-12T05:19:04;17.23;90.36
71436;SHT31;59251;51.326;12.370;2023-09-12T05:21:31;17.21;90.53
71436;SHT31;59251;51.326;12.370;2023-09-12T05:23:58;17.24;90.20
71436;SHT31;59251;51.326;12.370;2023-09-12T05:26:24;17.30;90.03
71436;SHT31;59251;51.326;12.370;2023-09-12T05:28:52;17.32;90.04
71436;SHT31;59251;51.326;12.370;2023-09-12T05:31:19;17.42;89.25
71436;SHT31;59251;51.326;12.370;2023-09-12T05:33:46;17.50;89.07
71436;SHT31;59251;51.326;12.370;2023-09-12T05:36:14;17.60;88.73
71436;SHT31;59251;51.326;12.370;2023-09-12T05:38:41;17.65;88.19
71436;SHT31;59251;51.326;12.370;2023-09-12T05:41:08;17.74;87.83
71436;SHT31;59251;51.326;12.370;2023-09-12T05:43:35;17.81;87.31
71436;SHT31;59251;51.326;12.370;2023-09-12T05:46:03;17.86;87.44
71436;SHT31;59251;51.326;12.370;2023-09-12T05:48:30;17.93;87.04
71436;SHT31;59251;51.326;12.370;2023-09-12T05:50:57;18.03;86.72
71436;SHT31;59251;51.326;12.370;2023-09-12T05:53:23;18.08;86.52
71436;SHT31;59251;51.326;12.370;2023-09-12T05:55:50;18.14;86.14
71436;SHT31;59251;51.326;12.370;2023-09-12T05:58:17;18.46;85.28
71436;SHT31;59251;51.326;12.370;2023-09-12T06:00:44;18.75;84.52
71436;SHT31;59251;51.326;12.370;2023-09-12T06:03:15;19.09;83.33
71436;SHT31;59251;51.326;12.370;2023-09-12T06:05:42;19.08;83.21
71436;SHT31;59251;51.326;12.370;2023-09-12T06:08:08;18.89;83.62
71436;SHT31;59251;51.326;12.370;2023-09-12T06:10:36;18.78;83.95
71436;SHT31;59251;51.326;12.370;2023-09-12T06:13:03;19.02;83.45
71436;SHT31;59251;51.326;12.370;2023-09-12T06:15:29;19.27;82.74
71436;SHT31;59251;51.326;12.370;2023-09-12T06:17:56;19.29;82.51
71436;SHT31;59251;51.326;12.370;2023-09-12T06:20:24;19.32;82.44
71436;SHT31;59251;51.326;12.370;2023-09-12T06:22:51;19.18;82.77
71436;SHT31;59251;51.326;12.370;2023-09-12T06:25:18;19.18;82.49
71436;SHT31;59251;51.326;12.370;2023-09-12T06:27:44;19.19;82.61
71436;SHT31;59251;51.326;12.370;2023-09-12T06:30:12;19.22;83.02
71436;SHT31;59251;51.326;12.370;2023-09-12T06:32:39;19.20;82.87
71436;SHT31;59251;51.326;12.370;2023-09-12T06:35:07;19.30;83.01
71436;SHT31;59251;51.326;12.370;2023-09-12T06:37:37;19.54;82.48
71436;SHT31;59251;51.326;12.370;2023-09-12T06:40:05;19.74;82.47
71436;SHT31;59251;51.326;12.370;2023-09-12T06:42:32;19.81;82.09
71436;SHT31;59251;51.326;12.370;2023-09-12T06:44:58;19.91;81.89
71436;SHT31;59251;51.326;12.370;2023-09-12T06:47:25;19.91;81.94
71436;SHT31;59251;51.326;12.370;2023-09-12T06:49:52;19.94;82.02
71436;SHT31;59251;51.326;12.370;2023-09-12T06:52:18;19.99;82.08
71436;SHT31;59251;51.326;12.370;2023-09-12T06:54:46;20.04;81.83
71436;SHT31;59251;51.326;12.370;2023-09-12T06:57:13;20.07;82.14
71436;SHT31;59251;51.326;12.370;2023-09-12T06:59:40;20.05;82.36
71436;SHT31;59251;51.326;12.370;2023-09-12T07:02:07;20.12;82.14
71436;SHT31;59251;51.326;12.370;2023-09-12T07:04:35;20.21;82.02
71436;SHT31;59251;51.326;12.370;2023-09-12T07:07:02;20.35;81.80
71436;SHT31;59251;51.326;12.370;2023-09-12T07:09:29;20.56;81.11
71436;SHT31;59251;51.326;12.370;2023-09-12T07:11:57;20.69;80.73
71436;SHT31;59251;51.326;12.370;2023-09-12T07:14:24;20.75;80.70
71436;SHT31;59251;51.326;12.370;2023-09-12T07:16:51;20.73;80.90
71436;SHT31;59251;51.326;12.370;2023-09-12T07:19:18;20.97;80.43
71436;SHT31;59251;51.326;12.370;2023-09-12T07:21:44;21.03;80.08
71436;SHT31;59251;51.326;12.370;2023-09-12T07:24:11;21.18;79.93
71436;SHT31;59251;51.326;12.370;2023-09-12T07:26:38;21.20;79.88
71436;SHT31;59251;51.326;12.370;2023-09-12T07:29:06;21.28;79.91
71436;SHT31;59251;51.326;12.370;2023-09-12T07:31:33;21.37;79.85
71436;SHT31;59251;51.326;12.370;2023-09-12T07:33:59;21.41;79.68
71436;SHT31;59251;51.326;12.370;2023-09-12T07:36:26;21.53;79.53
71436;SHT31;59251;51.326;12.370;2023-09-12T07:38:53;21.67;79.36
71436;SHT31;59251;51.326;12.370;2023-09-12T07:41:19;21.70;79.43
71436;SHT31;59251;51.326;12.370;2023-09-12T07:43:46;21.90;78.93
71436;SHT31;59251;51.326;12.370;2023-09-12T07:46:14;21.75;79.22
71436;SHT31;59251;51.326;12.370;2023-09-12T07:48:41;21.93;78.77
71436;SHT31;59251;51.326;12.370;2023-09-12T07:51:12;22.07;79.01
71436;SHT31;59251;51.326;12.370;2023-09-12T07:53:39;22.20;78.68
71436;SHT31;59251;51.326;12.370;2023-09-12T07:56:08;22.30;78.06
71436;SHT31;59251;51.326;12.370;2023-09-12T07:58:35;22.37;78.09
71436;SHT31;59251;51.326;12.370;2023-09-12T08:01:05;22.54;77.68
71436;SHT31;59251;51.326;12.370;2023-09-12T08:03:33;22.58;77.26
71436;SHT31;59251;51.326;12.370;2023-09-12T08:06:00;22.66;77.42
71436;SHT31;59251;51.326;12.370;2023-09-12T08:08:26;22.71;77.46
71436;SHT31;59251;51.326;12.370;2023-09-12T08:10:53;22.76;77.76
71436;SHT31;59251;51.326;12.370;2023-09-12T08:13:20;22.78;77.83
71436;SHT31;59251;51.326;12.370;2023-09-12T08:15:47;22.99;77.65
71436;SHT31;59251;51.326;12.370;2023-09-12T08:18:14;23.12;77.45
71436;SHT31;59251;51.326;12.370;2023-09-12T08:20:42;23.27;77.22
71436;SHT31;59251;51.326;12.370;2023-09-12T08:23:08;23.44;77.40
71436;SHT31;59251;51.326;12.370;2023-09-12T08:25:35;23.46;77.37
71436;SHT31;59251;51.326;12.370;2023-09-12T08:28:02;23.50;77.13
71436;SHT31;59251;51.326;12.370;2023-09-12T08:30:29;23.58;76.94
71436;SHT31;59251;51.326;12.370;2023-09-12T08:32:56;23.67;76.74
71436;SHT31;59251;51.326;12.370;2023-09-12T08:35:22;23.79;76.68
71436;SHT31;59251;51.326;12.370;2023-09-12T08:37:50;23.82;76.76
71436;SHT31;59251;51.326;12.370;2023-09-12T08:40:17;23.82;76.69
71436;SHT31;59251;51.326;12.370;2023-09-12T08:42:44;23.95;76.59
71436;SHT31;59251;51.326;12.370;2023-09-12T08:45:14;24.02;76.49
71436;SHT31;59251;51.326;12.370;2023-09-12T08:47:42;24.09;76.53
71436;SHT31;59251;51.326;12.370;2023-09-12T08:50:11;24.10;76.62
71436;SHT31;59251;51.326;12.370;2023-09-12T08:52:40;24.12;76.61
71436;SHT31;59251;51.326;12.370;2023-09-12T08:55:09;24.37;76.23
71436;SHT31;59251;51.326;12.370;2023-09-12T08:57:37;24.46;76.30
71436;SHT31;59251;51.326;12.370;2023-09-12T09:00:05;24.57;76.60
71436;SHT31;59251;51.326;12.370;2023-09-12T09:02:34;24.52;77.06
71436;SHT31;59251;51.326;12.370;2023-09-12T09:05:01;24.63;77.24
71436;SHT31;59251;51.326;12.370;2023-09-12T09:07:32;24.73;76.94
71436;SHT31;59251;51.326;12.370;2023-09-12T09:09:59;24.83;76.64
71436;SHT31;59251;51.326;12.370;2023-09-12T09:12:30;24.85;76.84
71436;SHT31;59251;51.326;12.370;2023-09-12T09:14:56;25.07;76.32
71436;SHT31;59251;51.326;12.370;2023-09-12T09:17:23;24.91;76.59
71436;SHT31;59251;51.326;12.370;2023-09-12T09:19:50;24.90;76.86
71436;SHT31;59251;51.326;12.370;2023-09-12T09:22:17;25.01;77.13
71436;SHT31;59251;51.326;12.370;2023-09-12T09:24:43;25.10;77.05
71436;SHT31;59251;51.326;12.370;2023-09-12T09:27:10;25.19;76.79
71436;SHT31;59251;51.326;12.370;2023-09-12T09:29:47;25.25;76.84
71436;SHT31;59251;51.326;12.370;2023-09-12T09:32:18;25.41;76.27
71436;SHT31;59251;51.326;12.370;2023-09-12T09:34:47;25.42;76.24
71436;SHT31;59251;51.326;12.370;2023-09-12T09:37:13;25.31;76.39
71436;SHT31;59251;51.326;12.370;2023-09-12T09:39:40;25.33;76.44
71436;SHT31;59251;51.326;12.370;2023-09-12T09:42:10;25.31;76.42
71436;SHT31;59251;51.326;12.370;2023-09-12T09:44:37;25.33;76.53
71436;SHT31;59251;51.326;12.370;2023-09-12T09:47:05;25.25;76.43
71436;SHT31;59251;51.326;12.370;2023-09-12T09:49:32;25.28;76.42
71436;SHT31;59251;51.326;12.370;2023-09-12T09:52:03;25.28;76.37
71436;SHT31;59251;51.326;12.370;2023-09-12T09:54:30;25.38;76.33
71436;SHT31;59251;51.326;12.370;2023-09-12T09:56:57;25.43;75.82
71436;SHT31;59251;51.326;12.370;2023-09-12T09:59:24;25.50;75.98
71436;SHT31;59251;51.326;12.370;2023-09-12T10:01:55;25.45;75.64
71436;SHT31;59251;51.326;12.370;2023-09-12T10:04:24;25.49;75.70
71436;SHT31;59251;51.326;12.370;2023-09-12T10:06:55;25.35;75.43
71436;SHT31;59251;51.326;12.370;2023-09-12T10:09:23;25.47;75.26
71436;SHT31;59251;51.326;12.370;2023-09-12T10:11:51;25.67;75.03
71436;SHT31;59251;51.326;12.370;2023-09-12T10:14:20;25.87;74.96
71436;SHT31;59251;51.326;12.370;2023-09-12T10:16:48;26.02;74.48
71436;SHT31;59251;51.326;12.370;2023-09-12T10:19:17;26.14;73.75
71436;SHT31;59251;51.326;12.370;2023-09-12T10:21:49;26.18;73.31
71436;SHT31;59251;51.326;12.370;2023-09-12T10:24:16;26.22;73.32
71436;SHT31;59251;51.326;12.370;2023-09-12T10:26:43;26.21;73.48
71436;SHT31;59251;51.326;12.370;2023-09-12T10:29:13;26.22;73.56
71436;SHT31;59251;51.326;12.370;2023-09-12T10:31:40;26.32;73.48
71436;SHT31;59251;51.326;12.370;2023-09-12T10:34:08;26.24;73.61
71436;SHT31;59251;51.326;12.370;2023-09-12T10:36:36;26.47;72.82
71436;SHT31;59251;51.326;12.370;2023-09-12T10:39:06;26.55;72.21
71436;SHT31;59251;51.326;12.370;2023-09-12T10:41:37;26.59;72.21
71436;SHT31;59251;51.326;12.370;2023-09-12T10:44:09;26.66;71.62
71436;SHT31;59251;51.326;12.370;2023-09-12T10:46:37;26.65;71.23
71436;SHT31;59251;51.326;12.370;2023-09-12T10:49:06;26.86;71.01
71436;SHT31;59251;51.326;12.370;2023-09-12T10:51:37;26.75;71.02
71436;SHT31;59251;51.326;12.370;2023-09-12T10:54:06;26.86;70.78
71436;SHT31;59251;51.326;12.370;2023-09-12T10:56:33;27.20;70.04
71436;SHT31;59251;51.326;12.370;2023-09-12T10:59:12;27.51;69.24
71436;SHT31;59251;51.326;12.370;2023-09-12T11:01:41;27.45;69.35
71436;SHT31;59251;51.326;12.370;2023-09-12T11:04:33;27.75;68.83
71436;SHT31;59251;51.326;12.370;2023-09-12T11:07:01;27.58;68.99
71436;SHT31;59251;51.326;12.370;2023-09-12T11:09:29;27.62;68.96
71436;SHT31;59251;51.326;12.370;2023-09-12T11:11:58;27.75;68.83
71436;SHT31;59251;51.326;12.370;2023-09-12T11:14:25;27.72;68.19
71436;SHT31;59251;51.326;12.370;2023-09-12T11:17:20;27.95;67.74
71436;SHT31;59251;51.326;12.370;2023-09-12T11:19:48;27.77;67.59
71436;SHT31;59251;51.326;12.370;2023-09-12T11:22:25;27.96;67.40
71436;SHT31;59251;51.326;12.370;2023-09-12T11:24:53;28.19;66.78
71436;SHT31;59251;51.326;12.370;2023-09-12T11:27:22;28.13;67.80
71436;SHT31;59251;51.326;12.370;2023-09-12T11:29:49;28.14;67.47
71436;SHT31;59251;51.326;12.370;2023-09-12T11:32:29;28.32;67.03
71436;SHT31;59251;51.326;12.370;2023-09-12T11:34:56;28.33;66.73
71436;SHT31;59251;51.326;12.370;2023-09-12T11:37:24;28.79;65.57
71436;SHT31;59251;51.326;12.370;2023-09-12T11:39:52;29.45;64.15
71436;SHT31;59251;51.326;12.370;2023-09-12T11:42:20;30.08;62.82
71436;SHT31;59251;51.326;12.370;2023-09-12T11:44:48;30.22;62.97
71436;SHT31;59251;51.326;12.370;2023-09-12T11:47:15;30.80;61.41
71436;SHT31;59251;51.326;12.370;2023-09-12T11:49:42;30.96;61.27
71436;SHT31;59251;51.326;12.370;2023-09-12T11:52:09;31.31;60.00
71436;SHT31;59251;51.326;12.370;2023-09-12T11:54:38;31.06;60.19
71436;SHT31;59251;51.326;12.370;2023-09-12T11:57:07;31.88;58.05
71436;SHT31;59251;51.326;12.370;2023-09-12T11:59:37;32.57;55.91
71436;SHT31;59251;51.326;12.370;2023-09-12T12:02:06;32.67;56.38
71436;SHT31;59251;51.326;12.370;2023-09-12T12:04:34;31.73;58.18
71436;SHT31;59251;51.326;12.370;2023-09-12T12:07:01;32.14;57.52
71436;SHT31;59251;51.326;12.370;2023-09-12T12:09:29;32.30;57.07
71436;SHT31;59251;51.326;12.370;2023-09-12T12:11:56;31.39;58.99
71436;SHT31;59251;51.326;12.370;2023-09-12T12:14:28;31.82;58.07
71436;SHT31;59251;51.326;12.370;2023-09-12T12:16:54;32.75;56.51
71436;SHT31;59251;51.326;12.370;2023-09-12T12:19:22;32.57;57.17
71436;SHT31;59251;51.326;12.370;2023-09-12T12:21:48;33.04;55.20
71436;SHT31;59251;51.326;12.370;2023-09-12T12:24:15;32.75;55.96
71436;SHT31;59251;51.326;12.370;2023-09-12T12:26:42;33.06;54.80
71436;SHT31;59251;51.326;12.370;2023-09-12T12:29:09;32.30;56.79
71436;SHT31;59251;51.326;12.370;2023-09-12T12:31:38;32.03;57.44
71436;SHT31;59251;51.326;12.370;2023-09-12T12:34:05;31.45;58.29
71436;SHT31;59251;51.326;12.370;2023-09-12T12:36:32;30.80;59.34
71436;SHT31;59251;51.326;12.370;2023-09-12T12:38:59;30.49;60.24
71436;SHT31;59251;51.326;12.370;2023-09-12T12:41:27;30.45;60.13
71436;SHT31;59251;51.326;12.370;2023-09-12T12:43:56;30.49;60.29
71436;SHT31;59251;51.326;12.370;2023-09-12T12:46:25;30.98;58.69
71436;SHT31;59251;51.326;12.370;2023-09-12T12:48:53;31.82;57.31
71436;SHT31;59251;51.326;12.370;2023-09-12T12:51:22;33.16;54.64
71436;SHT31;59251;51.326;12.370;2023-09-12T12:53:51;33.87;53.23
71436;SHT31;59251;51.326;12.370;2023-09-12T12:56:19;34.19;52.27
71436;SHT31;59251;51.326;12.370;2023-09-12T12:58:48;33.41;53.44
71436;SHT31;59251;51.326;12.370;2023-09-12T13:01:15;33.53;53.92
71436;SHT31;59251;51.326;12.370;2023-09-12T13:03:42;33.76;53.27
71436;SHT31;59251;51.326;12.370;2023-09-12T13:06:11;33.61;53.51
71436;SHT31;59251;51.326;12.370;2023-09-12T13:08:43;32.84;54.95
71436;SHT31;59251;51.326;12.370;2023-09-12T13:11:12;33.19;54.01
71436;SHT31;59251;51.326;12.370;2023-09-12T13:13:38;33.98;52.84
71436;SHT31;59251;51.326;12.370;2023-09-12T13:16:06;34.22;52.49
71436;SHT31;59251;51.326;12.370;2023-09-12T13:18:35;34.55;51.53
71436;SHT31;59251;51.326;12.370;2023-09-12T13:21:02;35.13;50.43
71436;SHT31;59251;51.326;12.370;2023-09-12T13:23:30;34.92;49.69
71436;SHT31;59251;51.326;12.370;2023-09-12T13:25:57;33.61;52.59
71436;SHT31;59251;51.326;12.370;2023-09-12T13:28:24;33.52;52.69
71436;SHT31;59251;51.326;12.370;2023-09-12T13:30:51;34.08;51.75
71436;SHT31;59251;51.326;12.370;2023-09-12T13:33:18;33.89;52.69
71436;SHT31;59251;51.326;12.370;2023-09-12T13:35:45;34.01;51.97
71436;SHT31;59251;51.326;12.370;2023-09-12T13:38:12;34.09;51.85
71436;SHT31;59251;51.326;12.370;2023-09-12T13:40:40;33.54;52.81
71436;SHT31;59251;51.326;12.370;2023-09-12T13:43:08;33.64;51.88
71436;SHT31;59251;51.326;12.370;2023-09-12T13:45:35;32.96;53.34
71436;SHT31;59251;51.326;12.370;2023-09-12T13:48:03;32.98;53.73
71436;SHT31;59251;51.326;12.370;2023-09-12T13:50:30;33.42;52.73
71436;SHT31;59251;51.326;12.370;2023-09-12T13:52:57;33.97;51.62
71436;SHT31;59251;51.326;12.370;2023-09-12T13:55:25;33.93;51.71
71436;SHT31;59251;51.326;12.370;2023-09-12T13:57:53;33.18;52.59
71436;SHT31;59251;51.326;12.370;2023-09-12T14:00:19;33.41;52.21
71436;SHT31;59251;51.326;12.370;2023-09-12T14:02:46;34.52;50.43
71436;SHT31;59251;51.326;12.370;2023-09-12T14:05:13;34.63;49.98
71436;SHT31;59251;51.326;12.370;2023-09-12T14:07:39;35.20;49.35
71436;SHT31;59251;51.326;12.370;2023-09-12T14:10:07;34.80;49.82
71436;SHT31;59251;51.326;12.370;2023-09-12T14:12:34;34.99;49.16
71436;SHT31;59251;51.326;12.370;2023-09-12T14:15:02;34.41;50.23
71436;SHT31;59251;51.326;12.370;2023-09-12T14:17:29;33.96;51.90
71436;SHT31;59251;51.326;12.370;2023-09-12T14:19:56;35.34;49.24
71436;SHT31;59251;51.326;12.370;2023-09-12T14:22:22;34.96;50.01
71436;SHT31;59251;51.326;12.370;2023-09-12T14:24:49;34.85;49.70
71436;SHT31;59251;51.326;12.370;2023-09-12T14:27:16;34.37;50.34
71436;SHT31;59251;51.326;12.370;2023-09-12T14:29:42;35.08;49.84
71436;SHT31;59251;51.326;12.370;2023-09-12T14:32:12;34.67;50.60
71436;SHT31;59251;51.326;12.370;2023-09-12T14:34:39;34.60;50.55
71436;SHT31;59251;51.326;12.370;2023-09-12T14:37:06;34.48;50.46
71436;SHT31;59251;51.326;12.370;2023-09-12T14:39:33;34.60;50.63
71436;SHT31;59251;51.326;12.370;2023-09-12T14:42:00;33.60;52.23
71436;SHT31;59251;51.326;12.370;2023-09-12T14:44:30;34.80;50.42
71436;SHT31;59251;51.326;12.370;2023-09-12T14:46:58;34.65;50.87
71436;SHT31;59251;51.326;12.370;2023-09-12T14:49:26;34.25;51.15
71436;SHT31;59251;51.326;12.370;2023-09-12T14:51:53;34.62;50.01
71436;SHT31;59251;51.326;12.370;2023-09-12T14:54:20;34.24;51.05
71436;SHT31;59251;51.326;12.370;2023-09-12T14:56:48;33.64;51.81
71436;SHT31;59251;51.326;12.370;2023-09-12T14:59:14;32.81;53.71
71436;SHT31;59251;51.326;12.370;2023-09-12T15:01:42;33.11;53.39
71436;SHT31;59251;51.326;12.370;2023-09-12T15:04:10;32.81;53.34
71436;SHT31;59251;51.326;12.370;2023-09-12T15:06:38;33.57;52.91
71436;SHT31;59251;51.326;12.370;2023-09-12T15:09:05;33.08;53.31
71436;SHT31;59251;51.326;12.370;2023-09-12T15:11:31;32.34;54.43
71436;SHT31;59251;51.326;12.370;2023-09-12T15:13:58;32.86;53.44
71436;SHT31;59251;51.326;12.370;2023-09-12T15:16:25;33.43;52.49
71436;SHT31;59251;51.326;12.370;2023-09-12T15:18:52;33.43;52.57